sensor_id;sensor_type;location;lat;lon;timestamp;P1;durP1;ratioP1;P2;durP2;ratioP2
16890;SDS011;8562;52.246;20.966;2022-08-04T00:01:02;7.93;;;5.10;;
16890;SDS011;8562;52.246;20.966;2022-08-04T00:06:30;5.10;;;4.60;;
16890;SDS011;8562;52.246;20.966;2022-08-04T00:08:59;5.93;;;4.60;;
16890;SDS011;8562;52.246;20.966;2022-08-04T00:11:29;7.20;;;5.57;;
16890;SDS011;8562;52.246;20.966;2022-08-04T00:14:05;4.93;;;4.43;;
16890;SDS011;8562;52.246;20.966;2022-08-04T00:16:35;4.90;;;4.40;;
16890;SDS011;8562;52.246;20.966;2022-08-04T00:19:03;5.00;;;4.50;;
16890;SDS011;8562;52.246;20.966;2022-08-04T00:21:30;5.10;;;3.97;;
16890;SDS011;8562;52.246;20.966;2022-08-04T00:23:58;5.43;;;4.93;;
16890;SDS011;8562;52.246;20.966;2022-08-04T00:26:26;5.20;;;4.20;;
16890;SDS011;8562;52.246;20.966;2022-08-04T00:28:53;5.87;;;4.20;;
16890;SDS011;8562;52.246;20.966;2022-08-04T00:31:20;4.63;;;4.23;;
16890;SDS011;8562;52.246;20.966;2022-08-04T00:33:47;4.87;;;4.20;;
16890;SDS011;8562;52.246;20.966;2022-08-04T00:36:14;4.67;;;4.07;;
16890;SDS011;8562;52.246;20.966;2022-08-04T00:38:42;4.93;;;3.73;;
16890;SDS011;8562;52.246;20.966;2022-08-04T00:49:07;3.87;;;3.57;;
16890;SDS011;8562;52.246;20.966;2022-08-04T00:54:05;4.03;;;3.73;;
16890;SDS011;8562;52.246;20.966;2022-08-04T01:06:35;3.10;;;2.80;;
16890;SDS011;8562;52.246;20.966;2022-08-04T01:17:06;4.63;;;3.40;;
16890;SDS011;8562;52.246;20.966;2022-08-04T01:25:03;4.83;;;3.20;;
16890;SDS011;8562;52.246;20.966;2022-08-04T01:27:39;3.83;;;3.00;;
16890;SDS011;8562;52.246;20.966;2022-08-04T01:30:09;3.57;;;2.77;;
16890;SDS011;8562;52.246;20.966;2022-08-04T01:35:03;3.07;;;2.83;;
16890;SDS011;8562;52.246;20.966;2022-08-04T01:37:48;5.13;;;3.20;;
16890;SDS011;8562;52.246;20.966;2022-08-04T01:40:19;3.67;;;2.40;;
16890;SDS011;8562;52.246;20.966;2022-08-04T01:42:46;3.00;;;2.70;;
16890;SDS011;8562;52.246;20.966;2022-08-04T01:45:14;3.20;;;2.90;;
16890;SDS011;8562;52.246;20.966;2022-08-04T01:47:52;3.23;;;2.67;;
16890;SDS011;8562;52.246;20.966;2022-08-04T01:50:19;2.87;;;2.67;;
16890;SDS011;8562;52.246;20.966;2022-08-04T01:52:46;4.70;;;3.13;;
16890;SDS011;8562;52.246;20.966;2022-08-04T01:55:13;3.17;;;2.93;;
16890;SDS011;8562;52.246;20.966;2022-08-04T01:57:42;3.03;;;2.73;;
16890;SDS011;8562;52.246;20.966;2022-08-04T02:00:09;5.80;;;2.90;;
16890;SDS011;8562;52.246;20.966;2022-08-04T02:02:36;3.10;;;2.80;;
16890;SDS011;8562;52.246;20.966;2022-08-04T02:05:03;3.70;;;2.83;;
16890;SDS011;8562;52.246;20.966;2022-08-04T02:10:03;4.23;;;2.93;;
16890;SDS011;8562;52.246;20.966;2022-08-04T02:20:32;3.33;;;2.50;;
16890;SDS011;8562;52.246;20.966;2022-08-04T02:23:09;3.53;;;3.23;;
16890;SDS011;8562;52.246;20.966;2022-08-04T02:25:45;4.97;;;2.60;;
16890;SDS011;8562;52.246;20.966;2022-08-04T02:28:21;3.23;;;2.50;;
16890;SDS011;8562;52.246;20.966;2022-08-04T02:31:03;2.57;;;2.33;;
16890;SDS011;8562;52.246;20.966;2022-08-04T02:33:37;2.77;;;2.40;;
16890;SDS011;8562;52.246;20.966;2022-08-04T02:36:04;2.77;;;2.57;;
16890;SDS011;8562;52.246;20.966;2022-08-04T02:41:03;2.50;;;2.30;;
16890;SDS011;8562;52.246;20.966;2022-08-04T02:43:29;2.60;;;2.27;;
16890;SDS011;8562;52.246;20.966;2022-08-04T02:45:56;3.07;;;2.33;;
16890;SDS011;8562;52.246;20.966;2022-08-04T02:48:23;2.70;;;2.50;;
16890;SDS011;8562;52.246;20.966;2022-08-04T02:50:50;3.10;;;2.53;;
16890;SDS011;8562;52.246;20.966;2022-08-04T02:53:21;2.40;;;2.20;;
16890;SDS011;8562;52.246;20.966;2022-08-04T02:55:47;2.60;;;2.40;;
16890;SDS011;8562;52.246;20.966;2022-08-04T02:58:14;2.87;;;2.30;;
16890;SDS011;8562;52.246;20.966;2022-08-04T03:00:42;2.73;;;1.93;;
16890;SDS011;8562;52.246;20.966;2022-08-04T03:03:26;2.50;;;2.17;;
16890;SDS011;8562;52.246;20.966;2022-08-04T03:06:43;2.43;;;1.67;;
16890;SDS011;8562;52.246;20.966;2022-08-04T03:17:26;3.27;;;2.23;;
16890;SDS011;8562;52.246;20.966;2022-08-04T03:28:25;2.63;;;2.30;;
16890;SDS011;8562;52.246;20.966;2022-08-04T03:35:45;4.40;;;2.47;;
16890;SDS011;8562;52.246;20.966;2022-08-04T03:46:07;3.10;;;2.80;;
16890;SDS011;8562;52.246;20.966;2022-08-04T03:48:47;2.77;;;2.47;;
16890;SDS011;8562;52.246;20.966;2022-08-04T03:54:21;2.30;;;2.10;;
16890;SDS011;8562;52.246;20.966;2022-08-04T03:57:06;3.00;;;2.43;;
16890;SDS011;8562;52.246;20.966;2022-08-04T04:30:34;2.97;;;2.70;;
16890;SDS011;8562;52.246;20.966;2022-08-04T04:41:14;3.93;;;3.03;;
16890;SDS011;8562;52.246;20.966;2022-08-04T04:43:52;4.33;;;3.30;;
16890;SDS011;8562;52.246;20.966;2022-08-04T04:51:48;3.07;;;2.80;;
16890;SDS011;8562;52.246;20.966;2022-08-04T04:54:19;3.63;;;3.20;;
16890;SDS011;8562;52.246;20.966;2022-08-04T04:56:47;3.97;;;3.57;;
16890;SDS011;8562;52.246;20.966;2022-08-04T04:59:18;4.07;;;3.43;;
16890;SDS011;8562;52.246;20.966;2022-08-04T05:09:42;4.57;;;3.80;;
16890;SDS011;8562;52.246;20.966;2022-08-04T05:15:00;4.23;;;3.40;;
16890;SDS011;8562;52.246;20.966;2022-08-04T05:17:35;4.00;;;3.60;;
16890;SDS011;8562;52.246;20.966;2022-08-04T05:27:46;4.10;;;3.47;;
16890;SDS011;8562;52.246;20.966;2022-08-04T05:30:15;4.03;;;3.57;;
16890;SDS011;8562;52.246;20.966;2022-08-04T05:33:02;4.17;;;3.53;;
16890;SDS011;8562;52.246;20.966;2022-08-04T05:35:30;3.73;;;3.10;;
16890;SDS011;8562;52.246;20.966;2022-08-04T05:37:58;5.00;;;3.47;;
16890;SDS011;8562;52.246;20.966;2022-08-04T05:40:25;5.43;;;3.10;;
16890;SDS011;8562;52.246;20.966;2022-08-04T05:42:52;6.27;;;3.63;;
16890;SDS011;8562;52.246;20.966;2022-08-04T05:45:19;4.43;;;3.30;;
16890;SDS011;8562;52.246;20.966;2022-08-04T05:47:46;3.90;;;3.50;;
16890;SDS011;8562;52.246;20.966;2022-08-04T05:50:13;4.63;;;3.10;;
16890;SDS011;8562;52.246;20.966;2022-08-04T05:52:39;4.37;;;3.77;;
16890;SDS011;8562;52.246;20.966;2022-08-04T05:55:07;3.63;;;3.33;;
16890;SDS011;8562;52.246;20.966;2022-08-04T05:57:33;6.27;;;3.70;;
16890;SDS011;8562;52.246;20.966;2022-08-04T06:00:00;3.77;;;3.17;;
16890;SDS011;8562;52.246;20.966;2022-08-04T06:02:29;3.50;;;3.20;;
16890;SDS011;8562;52.246;20.966;2022-08-04T06:04:56;2.97;;;2.67;;
16890;SDS011;8562;52.246;20.966;2022-08-04T06:07:22;3.53;;;3.23;;
16890;SDS011;8562;52.246;20.966;2022-08-04T06:09:50;6.00;;;3.20;;
16890;SDS011;8562;52.246;20.966;2022-08-04T06:12:17;6.97;;;3.23;;
16890;SDS011;8562;52.246;20.966;2022-08-04T06:14:46;4.03;;;3.37;;
16890;SDS011;8562;52.246;20.966;2022-08-04T06:17:13;3.23;;;2.93;;
16890;SDS011;8562;52.246;20.966;2022-08-04T06:19:40;5.00;;;3.63;;
16890;SDS011;8562;52.246;20.966;2022-08-04T06:22:07;3.20;;;2.90;;
16890;SDS011;8562;52.246;20.966;2022-08-04T06:24:36;4.03;;;2.83;;
16890;SDS011;8562;52.246;20.966;2022-08-04T06:27:03;3.53;;;2.97;;
16890;SDS011;8562;52.246;20.966;2022-08-04T06:29:30;4.93;;;3.00;;
16890;SDS011;8562;52.246;20.966;2022-08-04T06:32:03;3.33;;;2.17;;
16890;SDS011;8562;52.246;20.966;2022-08-04T06:34:51;2.43;;;2.23;;
16890;SDS011;8562;52.246;20.966;2022-08-04T06:37:19;3.90;;;2.83;;
16890;SDS011;8562;52.246;20.966;2022-08-04T06:39:46;4.83;;;2.67;;
16890;SDS011;8562;52.246;20.966;2022-08-04T06:42:12;7.03;;;2.53;;
16890;SDS011;8562;52.246;20.966;2022-08-04T06:44:43;3.20;;;2.70;;
16890;SDS011;8562;52.246;20.966;2022-08-04T06:47:11;2.27;;;2.07;;
16890;SDS011;8562;52.246;20.966;2022-08-04T06:49:37;4.97;;;2.23;;
16890;SDS011;8562;52.246;20.966;2022-08-04T06:52:04;3.00;;;2.20;;
16890;SDS011;8562;52.246;20.966;2022-08-04T06:54:30;4.53;;;2.57;;
16890;SDS011;8562;52.246;20.966;2022-08-04T06:56:57;3.13;;;2.70;;
16890;SDS011;8562;52.246;20.966;2022-08-04T06:59:23;2.70;;;2.50;;
16890;SDS011;8562;52.246;20.966;2022-08-04T07:01:50;2.70;;;2.50;;
16890;SDS011;8562;52.246;20.966;2022-08-04T07:04:17;2.57;;;2.37;;
16890;SDS011;8562;52.246;20.966;2022-08-04T07:06:43;2.70;;;2.50;;
16890;SDS011;8562;52.246;20.966;2022-08-04T07:09:10;3.93;;;2.53;;
16890;SDS011;8562;52.246;20.966;2022-08-04T07:11:36;3.33;;;2.70;;
16890;SDS011;8562;52.246;20.966;2022-08-04T07:14:03;3.07;;;2.60;;
16890;SDS011;8562;52.246;20.966;2022-08-04T07:16:29;3.10;;;2.80;;
16890;SDS011;8562;52.246;20.966;2022-08-04T07:18:56;4.67;;;2.83;;
16890;SDS011;8562;52.246;20.966;2022-08-04T07:21:23;6.00;;;3.00;;
16890;SDS011;8562;52.246;20.966;2022-08-04T07:23:51;5.03;;;2.80;;
16890;SDS011;8562;52.246;20.966;2022-08-04T07:26:17;4.17;;;2.87;;
16890;SDS011;8562;52.246;20.966;2022-08-04T07:28:44;2.30;;;2.10;;
16890;SDS011;8562;52.246;20.966;2022-08-04T07:31:12;3.13;;;2.57;;
16890;SDS011;8562;52.246;20.966;2022-08-04T07:33:40;3.03;;;2.70;;
16890;SDS011;8562;52.246;20.966;2022-08-04T07:36:06;2.27;;;2.07;;
16890;SDS011;8562;52.246;20.966;2022-08-04T07:38:32;3.03;;;2.20;;
16890;SDS011;8562;52.246;20.966;2022-08-04T07:40:58;3.17;;;2.23;;
16890;SDS011;8562;52.246;20.966;2022-08-04T07:43:27;2.97;;;2.10;;
16890;SDS011;8562;52.246;20.966;2022-08-04T07:45:54;9.77;;;2.53;;
16890;SDS011;8562;52.246;20.966;2022-08-04T07:48:21;6.33;;;2.10;;
16890;SDS011;8562;52.246;20.966;2022-08-04T07:50:49;2.33;;;1.83;;
16890;SDS011;8562;52.246;20.966;2022-08-04T07:53:15;1.83;;;1.50;;
16890;SDS011;8562;52.246;20.966;2022-08-04T07:55:43;1.80;;;1.70;;
16890;SDS011;8562;52.246;20.966;2022-08-04T07:58:10;1.87;;;1.50;;
16890;SDS011;8562;52.246;20.966;2022-08-04T08:00:36;2.20;;;1.87;;
16890;SDS011;8562;52.246;20.966;2022-08-04T08:03:02;3.43;;;1.97;;
16890;SDS011;8562;52.246;20.966;2022-08-04T08:05:29;1.67;;;1.50;;
16890;SDS011;8562;52.246;20.966;2022-08-04T08:07:55;2.90;;;1.77;;
16890;SDS011;8562;52.246;20.966;2022-08-04T08:10:22;3.27;;;1.80;;
16890;SDS011;8562;52.246;20.966;2022-08-04T08:12:49;2.60;;;2.10;;
16890;SDS011;8562;52.246;20.966;2022-08-04T08:15:15;2.80;;;2.07;;
16890;SDS011;8562;52.246;20.966;2022-08-04T08:17:43;1.80;;;1.70;;
16890;SDS011;8562;52.246;20.966;2022-08-04T08:20:09;2.83;;;1.77;;
16890;SDS011;8562;52.246;20.966;2022-08-04T08:22:36;2.23;;;1.83;;
16890;SDS011;8562;52.246;20.966;2022-08-04T08:25:06;1.97;;;1.50;;
16890;SDS011;8562;52.246;20.966;2022-08-04T08:27:32;1.60;;;1.50;;
16890;SDS011;8562;52.246;20.966;2022-08-04T08:29:59;3.67;;;1.90;;
16890;SDS011;8562;52.246;20.966;2022-08-04T08:32:25;1.73;;;1.60;;
16890;SDS011;8562;52.246;20.966;2022-08-04T08:34:52;2.00;;;1.57;;
16890;SDS011;8562;52.246;20.966;2022-08-04T08:39:48;1.53;;;1.43;;
16890;SDS011;8562;52.246;20.966;2022-08-04T08:53:01;2.67;;;1.87;;
16890;SDS011;8562;52.246;20.966;2022-08-04T09:05:39;1.67;;;1.57;;
16890;SDS011;8562;52.246;20.966;2022-08-04T09:13:12;2.30;;;1.90;;
16890;SDS011;8562;52.246;20.966;2022-08-04T09:18:24;2.90;;;1.70;;
16890;SDS011;8562;52.246;20.966;2022-08-04T09:23:42;2.40;;;1.60;;
16890;SDS011;8562;52.246;20.966;2022-08-04T09:26:16;2.00;;;1.50;;
16890;SDS011;8562;52.246;20.966;2022-08-04T09:29:32;1.87;;;1.77;;
16890;SDS011;8562;52.246;20.966;2022-08-04T09:31:42;1.40;;;1.30;;
16890;SDS011;8562;52.246;20.966;2022-08-04T09:34:11;1.70;;;1.50;;
16890;SDS011;8562;52.246;20.966;2022-08-04T09:39:10;1.70;;;1.60;;
16890;SDS011;8562;52.246;20.966;2022-08-04T09:49:21;2.20;;;2.00;;
16890;SDS011;8562;52.246;20.966;2022-08-04T09:56:51;1.73;;;1.63;;
16890;SDS011;8562;52.246;20.966;2022-08-04T09:59:32;3.07;;;1.60;;
16890;SDS011;8562;52.246;20.966;2022-08-04T10:02:05;2.30;;;1.90;;
16890;SDS011;8562;52.246;20.966;2022-08-04T10:04:32;1.40;;;1.30;;
16890;SDS011;8562;52.246;20.966;2022-08-04T10:07:23;1.77;;;1.67;;
16890;SDS011;8562;52.246;20.966;2022-08-04T10:14:52;2.03;;;1.90;;
16890;SDS011;8562;52.246;20.966;2022-08-04T10:20:38;2.20;;;1.90;;
16890;SDS011;8562;52.246;20.966;2022-08-04T10:22:42;2.00;;;1.90;;
16890;SDS011;8562;52.246;20.966;2022-08-04T10:27:59;2.40;;;2.20;;
16890;SDS011;8562;52.246;20.966;2022-08-04T10:30:27;2.47;;;2.00;;
16890;SDS011;8562;52.246;20.966;2022-08-04T10:33:20;2.20;;;2.00;;
16890;SDS011;8562;52.246;20.966;2022-08-04T10:35:45;2.50;;;2.30;;
16890;SDS011;8562;52.246;20.966;2022-08-04T10:41:00;2.40;;;1.90;;
16890;SDS011;8562;52.246;20.966;2022-08-04T10:46:01;2.70;;;2.50;;
16890;SDS011;8562;52.246;20.966;2022-08-04T10:48:35;2.50;;;2.30;;
16890;SDS011;8562;52.246;20.966;2022-08-04T10:51:20;2.43;;;2.23;;
16890;SDS011;8562;52.246;20.966;2022-08-04T10:53:49;2.37;;;2.17;;
16890;SDS011;8562;52.246;20.966;2022-08-04T10:59:15;2.50;;;2.30;;
16890;SDS011;8562;52.246;20.966;2022-08-04T11:01:47;2.47;;;2.27;;
16890;SDS011;8562;52.246;20.966;2022-08-04T11:04:16;3.13;;;2.50;;
16890;SDS011;8562;52.246;20.966;2022-08-04T11:06:47;3.10;;;2.13;;
16890;SDS011;8562;52.246;20.966;2022-08-04T11:09:13;2.50;;;2.30;;
16890;SDS011;8562;52.246;20.966;2022-08-04T11:11:46;2.73;;;2.50;;
16890;SDS011;8562;52.246;20.966;2022-08-04T11:14:15;2.87;;;2.33;;
16890;SDS011;8562;52.246;20.966;2022-08-04T11:19:19;2.70;;;2.50;;
16890;SDS011;8562;52.246;20.966;2022-08-04T11:21:56;2.83;;;2.03;;
16890;SDS011;8562;52.246;20.966;2022-08-04T11:24:30;2.20;;;2.00;;
16890;SDS011;8562;52.246;20.966;2022-08-04T11:26:59;2.40;;;2.07;;
16890;SDS011;8562;52.246;20.966;2022-08-04T11:31:51;2.33;;;2.13;;
16890;SDS011;8562;52.246;20.966;2022-08-04T11:39:23;2.47;;;2.27;;
16890;SDS011;8562;52.246;20.966;2022-08-04T11:41:51;3.00;;;1.97;;
16890;SDS011;8562;52.246;20.966;2022-08-04T11:44:21;2.83;;;2.20;;
16890;SDS011;8562;52.246;20.966;2022-08-04T11:46:52;2.47;;;2.27;;
16890;SDS011;8562;52.246;20.966;2022-08-04T11:49:23;2.40;;;2.20;;
16890;SDS011;8562;52.246;20.966;2022-08-04T11:51:51;2.90;;;2.47;;
16890;SDS011;8562;52.246;20.966;2022-08-04T11:54:18;3.07;;;2.50;;
16890;SDS011;8562;52.246;20.966;2022-08-04T11:56:45;2.20;;;2.10;;
16890;SDS011;8562;52.246;20.966;2022-08-04T11:59:11;2.50;;;2.30;;
16890;SDS011;8562;52.246;20.966;2022-08-04T12:04:13;2.50;;;2.30;;
16890;SDS011;8562;52.246;20.966;2022-08-04T12:12:06;2.73;;;2.23;;
16890;SDS011;8562;52.246;20.966;2022-08-04T12:17:37;2.50;;;2.30;;
16890;SDS011;8562;52.246;20.966;2022-08-04T12:20:05;2.20;;;2.00;;
16890;SDS011;8562;52.246;20.966;2022-08-04T12:22:35;2.87;;;2.50;;
16890;SDS011;8562;52.246;20.966;2022-08-04T12:25:04;2.50;;;2.30;;
16890;SDS011;8562;52.246;20.966;2022-08-04T12:30:00;1.90;;;1.80;;
16890;SDS011;8562;52.246;20.966;2022-08-04T12:37:33;5.37;;;3.03;;
16890;SDS011;8562;52.246;20.966;2022-08-04T12:40:06;3.57;;;2.87;;
16890;SDS011;8562;52.246;20.966;2022-08-04T12:42:54;2.67;;;2.47;;
16890;SDS011;8562;52.246;20.966;2022-08-04T12:45:23;2.60;;;2.40;;
16890;SDS011;8562;52.246;20.966;2022-08-04T12:47:51;2.90;;;2.00;;
16890;SDS011;8562;52.246;20.966;2022-08-04T12:50:18;2.87;;;2.60;;
16890;SDS011;8562;52.246;20.966;2022-08-04T12:52:48;2.87;;;2.37;;
16890;SDS011;8562;52.246;20.966;2022-08-04T12:55:17;2.53;;;2.33;;
16890;SDS011;8562;52.246;20.966;2022-08-04T12:57:45;2.37;;;2.17;;
16890;SDS011;8562;52.246;20.966;2022-08-04T13:00:21;2.37;;;2.17;;
16890;SDS011;8562;52.246;20.966;2022-08-04T13:02:48;2.97;;;2.37;;
16890;SDS011;8562;52.246;20.966;2022-08-04T13:05:15;2.27;;;2.07;;
16890;SDS011;8562;52.246;20.966;2022-08-04T13:07:44;2.47;;;2.27;;
16890;SDS011;8562;52.246;20.966;2022-08-04T13:10:13;2.60;;;2.40;;
16890;SDS011;8562;52.246;20.966;2022-08-04T13:12:40;2.83;;;2.03;;
16890;SDS011;8562;52.246;20.966;2022-08-04T13:15:10;2.43;;;2.23;;
16890;SDS011;8562;52.246;20.966;2022-08-04T13:18:10;3.10;;;2.30;;
16890;SDS011;8562;52.246;20.966;2022-08-04T13:20:34;2.40;;;2.20;;
16890;SDS011;8562;52.246;20.966;2022-08-04T13:25:33;3.90;;;2.33;;
16890;SDS011;8562;52.246;20.966;2022-08-04T13:28:04;2.13;;;2.00;;
16890;SDS011;8562;52.246;20.966;2022-08-04T13:30:30;2.83;;;2.00;;
16890;SDS011;8562;52.246;20.966;2022-08-04T13:32:59;3.10;;;2.10;;
16890;SDS011;8562;52.246;20.966;2022-08-04T13:35:25;2.60;;;2.40;;
16890;SDS011;8562;52.246;20.966;2022-08-04T13:37:53;2.60;;;2.40;;
16890;SDS011;8562;52.246;20.966;2022-08-04T13:40:21;2.60;;;2.40;;
16890;SDS011;8562;52.246;20.966;2022-08-04T13:42:47;2.23;;;2.10;;
16890;SDS011;8562;52.246;20.966;2022-08-04T13:45:15;3.83;;;2.40;;
16890;SDS011;8562;52.246;20.966;2022-08-04T13:47:45;3.27;;;2.57;;
16890;SDS011;8562;52.246;20.966;2022-08-04T13:52:41;2.30;;;2.20;;
16890;SDS011;8562;52.246;20.966;2022-08-04T13:55:25;3.20;;;2.47;;
16890;SDS011;8562;52.246;20.966;2022-08-04T13:57:54;2.10;;;2.00;;
16890;SDS011;8562;52.246;20.966;2022-08-04T14:00:20;2.03;;;1.93;;
16890;SDS011;8562;52.246;20.966;2022-08-04T14:02:58;2.67;;;1.90;;
16890;SDS011;8562;52.246;20.966;2022-08-04T14:05:25;3.10;;;2.23;;
16890;SDS011;8562;52.246;20.966;2022-08-04T14:07:56;3.23;;;2.20;;
16890;SDS011;8562;52.246;20.966;2022-08-04T14:10:23;2.87;;;2.27;;
16890;SDS011;8562;52.246;20.966;2022-08-04T14:12:50;2.23;;;2.03;;
16890;SDS011;8562;52.246;20.966;2022-08-04T14:15:36;2.30;;;2.10;;
16890;SDS011;8562;52.246;20.966;2022-08-04T14:18:19;2.47;;;2.27;;
16890;SDS011;8562;52.246;20.966;2022-08-04T14:23:28;2.47;;;2.27;;
16890;SDS011;8562;52.246;20.966;2022-08-04T14:25:54;2.67;;;2.10;;
16890;SDS011;8562;52.246;20.966;2022-08-04T14:28:27;2.27;;;2.07;;
16890;SDS011;8562;52.246;20.966;2022-08-04T14:31:11;2.17;;;2.00;;
16890;SDS011;8562;52.246;20.966;2022-08-04T14:33:38;2.33;;;2.10;;
16890;SDS011;8562;52.246;20.966;2022-08-04T14:36:04;2.23;;;2.10;;
16890;SDS011;8562;52.246;20.966;2022-08-04T14:38:44;2.40;;;1.93;;
16890;SDS011;8562;52.246;20.966;2022-08-04T14:41:11;2.23;;;2.03;;
16890;SDS011;8562;52.246;20.966;2022-08-04T14:43:56;1.93;;;1.80;;
16890;SDS011;8562;52.246;20.966;2022-08-04T14:46:23;2.20;;;2.00;;
16890;SDS011;8562;52.246;20.966;2022-08-04T14:49:10;1.87;;;1.73;;
16890;SDS011;8562;52.246;20.966;2022-08-04T14:51:41;2.13;;;1.93;;
16890;SDS011;8562;52.246;20.966;2022-08-04T14:54:09;2.07;;;1.90;;
16890;SDS011;8562;52.246;20.966;2022-08-04T14:56:37;2.30;;;2.10;;
16890;SDS011;8562;52.246;20.966;2022-08-04T14:59:06;2.80;;;2.10;;
16890;SDS011;8562;52.246;20.966;2022-08-04T15:01:33;3.30;;;2.80;;
16890;SDS011;8562;52.246;20.966;2022-08-04T15:03:59;2.10;;;1.93;;
16890;SDS011;8562;52.246;20.966;2022-08-04T15:06:27;2.57;;;2.33;;
16890;SDS011;8562;52.246;20.966;2022-08-04T15:08:54;3.40;;;2.10;;
16890;SDS011;8562;52.246;20.966;2022-08-04T15:11:21;3.23;;;1.80;;
16890;SDS011;8562;52.246;20.966;2022-08-04T15:13:47;2.23;;;1.90;;
16890;SDS011;8562;52.246;20.966;2022-08-04T15:16:13;2.90;;;2.40;;
16890;SDS011;8562;52.246;20.966;2022-08-04T15:18:40;3.33;;;1.87;;
16890;SDS011;8562;52.246;20.966;2022-08-04T15:21:06;1.90;;;1.70;;
16890;SDS011;8562;52.246;20.966;2022-08-04T15:23:33;3.63;;;1.73;;
16890;SDS011;8562;52.246;20.966;2022-08-04T15:26:01;3.17;;;2.00;;
16890;SDS011;8562;52.246;20.966;2022-08-04T15:28:28;2.17;;;2.00;;
16890;SDS011;8562;52.246;20.966;2022-08-04T15:30:55;3.10;;;1.90;;
16890;SDS011;8562;52.246;20.966;2022-08-04T15:33:22;3.17;;;2.17;;
16890;SDS011;8562;52.246;20.966;2022-08-04T15:35:49;2.40;;;2.20;;
16890;SDS011;8562;52.246;20.966;2022-08-04T15:38:25;1.53;;;1.43;;
16890;SDS011;8562;52.246;20.966;2022-08-04T15:40:59;2.30;;;2.10;;
16890;SDS011;8562;52.246;20.966;2022-08-04T15:46:10;2.83;;;1.43;;
16890;SDS011;8562;52.246;20.966;2022-08-04T15:48:37;1.97;;;1.77;;
16890;SDS011;8562;52.246;20.966;2022-08-04T15:51:05;2.53;;;2.00;;
16890;SDS011;8562;52.246;20.966;2022-08-04T15:55:58;1.77;;;1.67;;
16890;SDS011;8562;52.246;20.966;2022-08-04T15:58:24;1.97;;;1.80;;
16890;SDS011;8562;52.246;20.966;2022-08-04T16:09:05;2.77;;;1.90;;
16890;SDS011;8562;52.246;20.966;2022-08-04T16:21:47;1.87;;;1.77;;
16890;SDS011;8562;52.246;20.966;2022-08-04T16:24:21;2.03;;;1.60;;
16890;SDS011;8562;52.246;20.966;2022-08-04T16:26:56;1.70;;;1.60;;
16890;SDS011;8562;52.246;20.966;2022-08-04T16:37:16;1.50;;;1.40;;
16890;SDS011;8562;52.246;20.966;2022-08-04T16:39:43;1.93;;;1.80;;
16890;SDS011;8562;52.246;20.966;2022-08-04T16:42:29;2.20;;;1.83;;
16890;SDS011;8562;52.246;20.966;2022-08-04T16:50:14;1.70;;;1.60;;
16890;SDS011;8562;52.246;20.966;2022-08-04T16:52:44;2.17;;;1.97;;
16890;SDS011;8562;52.246;20.966;2022-08-04T16:55:11;1.60;;;1.50;;
16890;SDS011;8562;52.246;20.966;2022-08-04T16:57:37;1.70;;;1.60;;
16890;SDS011;8562;52.246;20.966;2022-08-04T17:00:04;2.00;;;1.60;;
16890;SDS011;8562;52.246;20.966;2022-08-04T17:02:31;1.60;;;1.50;;
16890;SDS011;8562;52.246;20.966;2022-08-04T17:04:57;1.70;;;1.60;;
16890;SDS011;8562;52.246;20.966;2022-08-04T17:07:24;1.77;;;1.67;;
16890;SDS011;8562;52.246;20.966;2022-08-04T17:09:51;2.37;;;2.10;;
16890;SDS011;8562;52.246;20.966;2022-08-04T17:12:17;2.60;;;1.57;;
16890;SDS011;8562;52.246;20.966;2022-08-04T17:14:44;1.47;;;1.37;;
16890;SDS011;8562;52.246;20.966;2022-08-04T17:17:10;2.40;;;1.50;;
16890;SDS011;8562;52.246;20.966;2022-08-04T17:19:36;2.00;;;1.80;;
16890;SDS011;8562;52.246;20.966;2022-08-04T17:22:04;1.93;;;1.60;;
16890;SDS011;8562;52.246;20.966;2022-08-04T17:24:32;1.40;;;1.30;;
16890;SDS011;8562;52.246;20.966;2022-08-04T17:26:58;2.00;;;1.33;;
16890;SDS011;8562;52.246;20.966;2022-08-04T17:29:27;1.03;;;1.03;;
16890;SDS011;8562;52.246;20.966;2022-08-04T17:31:54;1.67;;;1.50;;
16890;SDS011;8562;52.246;20.966;2022-08-04T17:34:20;1.70;;;1.40;;
16890;SDS011;8562;52.246;20.966;2022-08-04T17:36:49;2.03;;;1.30;;
16890;SDS011;8562;52.246;20.966;2022-08-04T17:39:16;4.13;;;1.90;;
16890;SDS011;8562;52.246;20.966;2022-08-04T17:41:45;1.67;;;1.50;;
16890;SDS011;8562;52.246;20.966;2022-08-04T17:44:11;2.43;;;1.30;;
16890;SDS011;8562;52.246;20.966;2022-08-04T17:46:41;1.83;;;1.70;;
16890;SDS011;8562;52.246;20.966;2022-08-04T17:51:44;1.70;;;1.30;;
16890;SDS011;8562;52.246;20.966;2022-08-04T17:54:11;2.00;;;1.67;;
16890;SDS011;8562;52.246;20.966;2022-08-04T17:56:48;1.60;;;1.50;;
16890;SDS011;8562;52.246;20.966;2022-08-04T18:06:51;1.43;;;1.33;;
16890;SDS011;8562;52.246;20.966;2022-08-04T18:09:24;1.57;;;1.47;;
16890;SDS011;8562;52.246;20.966;2022-08-04T18:12:21;2.27;;;1.70;;
16890;SDS011;8562;52.246;20.966;2022-08-04T18:17:04;1.37;;;1.27;;
16890;SDS011;8562;52.246;20.966;2022-08-04T18:19:30;1.60;;;1.50;;
16890;SDS011;8562;52.246;20.966;2022-08-04T18:21:56;3.13;;;1.60;;
16890;SDS011;8562;52.246;20.966;2022-08-04T18:24:22;2.23;;;1.60;;
16890;SDS011;8562;52.246;20.966;2022-08-04T18:26:48;2.80;;;1.63;;
16890;SDS011;8562;52.246;20.966;2022-08-04T18:29:16;2.97;;;1.50;;
16890;SDS011;8562;52.246;20.966;2022-08-04T18:31:42;1.90;;;1.50;;
16890;SDS011;8562;52.246;20.966;2022-08-04T18:34:09;2.43;;;1.90;;
16890;SDS011;8562;52.246;20.966;2022-08-04T18:36:35;3.37;;;1.47;;
16890;SDS011;8562;52.246;20.966;2022-08-04T18:39:02;1.40;;;1.30;;
16890;SDS011;8562;52.246;20.966;2022-08-04T18:41:29;1.87;;;1.70;;
16890;SDS011;8562;52.246;20.966;2022-08-04T18:43:55;1.40;;;1.30;;
16890;SDS011;8562;52.246;20.966;2022-08-04T18:46:22;2.63;;;1.87;;
16890;SDS011;8562;52.246;20.966;2022-08-04T18:48:48;1.73;;;1.60;;
16890;SDS011;8562;52.246;20.966;2022-08-04T18:51:14;2.00;;;1.70;;
16890;SDS011;8562;52.246;20.966;2022-08-04T18:53:43;2.57;;;1.83;;
16890;SDS011;8562;52.246;20.966;2022-08-04T18:56:09;2.17;;;1.50;;
16890;SDS011;8562;52.246;20.966;2022-08-04T18:58:35;3.47;;;2.40;;
16890;SDS011;8562;52.246;20.966;2022-08-04T19:01:01;1.97;;;1.83;;
16890;SDS011;8562;52.246;20.966;2022-08-04T19:03:28;2.73;;;1.90;;
16890;SDS011;8562;52.246;20.966;2022-08-04T19:05:54;2.07;;;1.67;;
16890;SDS011;8562;52.246;20.966;2022-08-04T19:08:20;1.57;;;1.47;;
16890;SDS011;8562;52.246;20.966;2022-08-04T19:10:46;1.60;;;1.50;;
16890;SDS011;8562;52.246;20.966;2022-08-04T19:13:12;2.00;;;1.87;;
16890;SDS011;8562;52.246;20.966;2022-08-04T19:15:38;2.20;;;2.00;;
16890;SDS011;8562;52.246;20.966;2022-08-04T19:18:04;2.20;;;2.00;;
16890;SDS011;8562;52.246;20.966;2022-08-04T19:20:31;1.80;;;1.47;;
16890;SDS011;8562;52.246;20.966;2022-08-04T19:22:57;1.93;;;1.80;;
16890;SDS011;8562;52.246;20.966;2022-08-04T19:25:23;2.93;;;1.90;;
16890;SDS011;8562;52.246;20.966;2022-08-04T19:27:49;3.03;;;1.93;;
16890;SDS011;8562;52.246;20.966;2022-08-04T19:30:15;2.33;;;1.80;;
16890;SDS011;8562;52.246;20.966;2022-08-04T19:32:41;8.87;;;3.53;;
16890;SDS011;8562;52.246;20.966;2022-08-04T19:35:08;11.87;;;4.23;;
16890;SDS011;8562;52.246;20.966;2022-08-04T19:37:34;14.77;;;5.50;;
16890;SDS011;8562;52.246;20.966;2022-08-04T19:40:00;51.00;;;18.37;;
16890;SDS011;8562;52.246;20.966;2022-08-04T19:42:26;63.33;;;25.70;;
16890;SDS011;8562;52.246;20.966;2022-08-04T19:44:52;11.97;;;6.40;;
16890;SDS011;8562;52.246;20.966;2022-08-04T19:47:19;22.27;;;9.60;;
16890;SDS011;8562;52.246;20.966;2022-08-04T19:49:45;16.53;;;9.30;;
16890;SDS011;8562;52.246;20.966;2022-08-04T19:52:11;26.37;;;10.03;;
16890;SDS011;8562;52.246;20.966;2022-08-04T19:54:37;11.40;;;5.87;;
16890;SDS011;8562;52.246;20.966;2022-08-04T19:57:05;4.90;;;2.30;;
16890;SDS011;8562;52.246;20.966;2022-08-04T19:59:31;5.57;;;3.27;;
16890;SDS011;8562;52.246;20.966;2022-08-04T20:01:57;6.67;;;3.23;;